Time;durP1;ratioP1;P1;durP2;ratioP2;P2;SDS_P1;SDS_P2;PMS_P1;PMS_P2;Temp;Humidity;BMP_temperature;BMP_pressure;BME280_temperature;BME280_humidity;BME280_pressure;Samples;Min_cycle;Max_cycle;Signal;HPM_P1;HPM_P2
2021/09/02 00:00:46;;;;;;;15.10;8.20;;;;;;;12.53;80.70;99205.66;456965;1203;97665;-42
2021/09/02 00:10:49;;;;;;;11.90;7.60;;;;;;;12.46;80.86;99206.42;457083;1196;110760;-41
2021/09/02 00:20:53;;;;;;;13.60;7.00;;;;;;;12.36;81.08;99204.27;456866;1202;108708;-41
2021/09/02 00:30:57;;;;;;;11.70;6.10;;;;;;;12.37;81.26;99204.83;456897;1202;97800;-42
2021/09/02 00:41:00;;;;;;;13.10;5.80;;;;;;;12.43;81.35;99213.30;457182;1203;108429;-40
2021/09/02 00:51:04;;;;;;;11.40;5.50;;;;;;;12.55;81.61;99209.23;457017;1202;97243;-42
2021/09/02 01:01:08;;;;;;;11.20;6.30;;;;;;;12.68;81.60;99210.83;456914;1197;110311;-41
2021/09/02 01:11:12;;;;;;;10.70;5.70;;;;;;;12.79;81.71;99219.18;456901;1203;108513;-41
2021/09/02 01:21:16;;;;;;;9.40;6.00;;;;;;;12.91;81.76;99218.33;457056;1195;97527;-42
2021/09/02 01:31:20;;;;;;;8.10;6.00;;;;;;;13.02;81.77;99218.44;456952;1202;107781;-43
2021/09/02 01:41:24;;;;;;;10.70;7.00;;;;;;;13.08;81.82;99219.75;456814;1203;97677;-41
2021/09/02 01:51:31;;;;;;;9.40;6.60;;;;;;;13.12;81.77;99213.09;457697;1195;110687;-42
2021/09/02 02:01:35;;;;;;;10.20;6.80;;;;;;;13.11;81.81;99206.46;457013;1203;108304;-40
2021/09/02 02:11:39;;;;;;;12.40;7.90;;;;;;;13.06;81.77;99212.48;457040;1195;97898;-42
2021/09/02 02:21:42;;;;;;;12.90;8.80;;;;;;;12.97;81.81;99220.17;457051;1195;108461;-41
2021/09/02 02:31:46;;;;;;;14.60;7.20;;;;;;;12.77;81.76;99222.68;456935;1196;97684;-42
2021/09/02 02:41:50;;;;;;;17.90;8.90;;;;;;;12.63;81.90;99218.69;457101;1202;97275;-42
2021/09/02 02:51:54;;;;;;;13.80;7.50;;;;;;;12.56;82.03;99225.25;457050;1202;108383;-42
2021/09/02 03:02:01;;;;;;;10.10;7.40;;;;;;;12.49;82.06;99232.58;456225;1197;97273;-42
2021/09/02 03:12:07;;;;;;;12.50;8.40;;;;;;;12.45;82.18;99229.67;457025;1200;110647;-42
2021/09/02 03:22:11;;;;;;;9.20;7.70;;;;;;;12.26;82.06;99233.13;456995;1195;108308;-41
2021/09/02 03:32:19;;;;;;;18.20;9.00;;;;;;;12.17;82.30;99242.71;457024;1200;97226;-43
2021/09/02 03:42:23;;;;;;;15.90;10.10;;;;;;;12.04;82.32;99254.91;456970;1200;108540;-43
2021/09/02 04:02:32;;;;;;;12.70;9.40;;;;;;;11.94;82.57;99262.91;457047;1203;97914;-43
2021/09/02 04:12:36;;;;;;;16.00;10.90;;;;;;;11.90;82.46;99273.07;457042;1202;108478;-43
2021/09/02 04:22:40;;;;;;;20.10;12.20;;;;;;;11.81;82.58;99288.50;457166;1195;97810;-42
2021/09/02 04:32:44;;;;;;;18.20;11.00;;;;;;;12.06;82.83;99287.42;457107;1202;110333;-42
2021/09/02 04:42:48;;;;;;;25.90;17.50;;;;;;;12.29;82.64;99285.05;456326;1204;108211;-43
2021/09/02 04:52:52;;;;;;;16.60;11.30;;;;;;;12.41;82.46;99288.67;457042;1197;97695;-43
2021/09/02 05:02:55;;;;;;;19.00;10.60;;;;;;;12.40;82.43;99300.20;457077;1202;97679;-43
2021/09/02 05:12:59;;;;;;;19.30;11.50;;;;;;;13.28;82.88;99299.87;457066;1196;108223;-42
2021/09/02 05:23:03;;;;;;;21.40;12.10;;;;;;;14.75;82.81;99293.84;457021;1203;97651;-43
2021/09/02 05:33:07;;;;;;;14.80;10.70;;;;;;;15.80;81.95;99291.09;457058;1202;98318;-42
2021/09/02 05:43:10;;;;;;;16.70;9.90;;;;;;;16.70;81.39;99298.72;456943;1202;108706;-42
2021/09/02 05:53:14;;;;;;;13.00;8.70;;;;;;;17.53;80.44;99298.20;456968;1195;97778;-42
2021/09/02 06:03:19;;;;;;;13.00;9.70;;;;;;;18.13;79.50;99308.89;456918;1200;97641;-42
2021/09/02 06:13:23;;;;;;;11.10;8.20;;;;;;;18.97;78.74;99314.07;456862;1203;108424;-43
2021/09/02 06:23:26;;;;;;;10.40;7.50;;;;;;;19.40;77.26;99320.17;456872;1204;97442;-42
2021/09/02 06:33:30;;;;;;;15.20;7.80;;;;;;;19.75;76.09;99330.00;456993;1202;97665;-44
2021/09/02 06:43:34;;;;;;;9.90;5.50;;;;;;;19.83;74.37;99326.55;456936;1202;108858;-44
2021/09/02 06:53:38;;;;;;;8.40;6.30;;;;;;;20.12;73.38;99341.77;456950;1202;97774;-43
2021/09/02 07:03:42;;;;;;;12.50;6.50;;;;;;;20.08;71.73;99350.20;457086;1202;97679;-43
2021/09/02 07:13:46;;;;;;;9.70;6.10;;;;;;;19.91;70.69;99350.85;456965;1202;108576;-44
2021/09/02 07:23:50;;;;;;;8.70;5.40;;;;;;;20.09;69.30;99361.73;456834;1204;98346;-42
2021/09/02 07:33:55;;;;;;;10.80;5.60;;;;;;;19.83;67.41;99374.70;456835;1200;110792;-42
2021/09/02 07:43:59;;;;;;;8.90;4.80;;;;;;;19.52;67.08;99394.52;456964;1195;98449;-42
2021/09/02 07:54:02;;;;;;;7.60;4.50;;;;;;;19.57;66.20;99397.84;456830;1202;97952;-41
2021/09/02 08:04:06;;;;;;;5.80;3.80;;;;;;;19.50;64.26;99406.27;456950;1195;97842;-42
2021/09/02 08:14:10;;;;;;;9.40;4.50;;;;;;;19.51;64.53;99403.53;456997;1195;108435;-42
2021/09/02 08:24:15;;;;;;;9.00;6.10;;;;;;;19.52;64.00;99399.46;456713;1202;97832;-45
2021/09/02 08:44:24;;;;;;;7.40;4.20;;;;;;;19.47;62.36;99414.48;456914;1195;97639;-42
2021/09/02 08:54:28;;;;;;;7.10;3.80;;;;;;;19.63;62.07;99411.17;457010;1200;108479;-41
2021/09/02 09:14:54;;;;;;;4.80;3.40;;;;;;;20.05;59.90;99417.86;456855;1200;109940;-42
2021/09/02 09:24:59;;;;;;;4.10;2.80;;;;;;;20.02;57.10;99413.85;456774;1202;108354;-42
2021/09/02 09:35:05;;;;;;;4.20;3.00;;;;;;;19.94;56.78;99418.52;456821;1196;97781;-41
2021/09/02 09:45:31;;;;;;;6.90;2.90;;;;;;;19.82;57.84;99407.97;456781;1196;97646;-43
2021/09/02 09:55:35;;;;;;;4.10;2.80;;;;;;;19.96;57.08;99399.64;456910;1200;110724;-41
2021/09/02 10:05:43;;;;;;;3.10;2.40;;;;;;;19.99;56.88;99397.21;456824;1197;97678;-42
2021/09/02 10:15:53;;;;;;;6.50;2.90;;;;;;;20.40;57.16;99397.52;456678;1205;97940;-42
2021/09/02 10:25:57;;;;;;;4.80;3.10;;;;;;;20.32;56.38;99394.26;457095;1195;98342;-42
2021/09/02 10:36:02;;;;;;;7.90;4.00;;;;;;;20.34;56.53;99392.75;456833;1203;97787;-41
2021/09/02 10:46:22;;;;;;;6.70;4.80;;;;;;;20.26;56.08;99401.25;456802;1202;109173;-40
2021/09/02 10:56:31;;;;;;;7.10;5.60;;;;;;;20.30;56.24;99404.14;456653;1195;98363;-41
2021/09/02 11:16:56;;;;;;;6.20;4.70;;;;;;;20.04;57.43;99400.73;456666;1202;108773;-40
2021/09/02 11:27:00;;;;;;;6.20;4.60;;;;;;;20.09;56.95;99392.29;456801;1202;97648;-45
2021/09/02 11:37:02;;;;;;;6.50;5.20;;;;;;;19.97;56.78;99401.92;456621;1202;97266;-45
2021/09/02 11:47:08;;;;;;;6.70;5.50;;;;;;;20.28;56.60;99394.70;456783;1202;108501;-43
2021/09/02 11:57:11;;;;;;;5.40;4.80;;;;;;;20.49;56.42;99395.37;456495;1203;97672;-43
2021/09/02 12:07:15;;;;;;;7.80;5.70;;;;;;;20.79;55.36;99389.22;456806;1202;110695;-45
2021/09/02 12:17:18;;;;;;;7.30;5.00;;;;;;;20.95;54.96;99384.86;456645;1195;98449;-44
2021/09/02 12:27:46;;;;;;;6.70;4.80;;;;;;;20.57;55.11;99384.23;456978;1202;97691;-43
2021/09/02 12:37:49;;;;;;;5.50;4.60;;;;;;;20.47;55.72;99385.82;456572;1202;97666;-43
2021/09/02 12:48:02;;;;;;;7.50;5.30;;;;;;;19.70;56.27;99385.71;456969;1196;98322;-43
2021/09/02 12:58:08;;;;;;;8.20;5.60;;;;;;;19.13;57.32;99389.04;456815;1202;108561;-43
2021/09/02 13:08:16;;;;;;;9.00;7.60;;;;;;;18.81;58.13;99384.75;456927;1195;97777;-42
2021/09/02 13:18:20;;;;;;;10.20;6.10;;;;;;;19.11;58.74;99379.70;456797;1197;110504;-44
2021/09/02 13:28:25;;;;;;;8.80;5.50;;;;;;;18.93;58.81;99375.13;456642;1195;99058;-44
2021/09/02 13:38:30;;;;;;;7.70;5.10;;;;;;;18.61;59.28;99380.93;456831;1196;98046;-42
2021/09/02 13:48:34;;;;;;;8.30;5.20;;;;;;;18.41;59.74;99386.05;456824;1197;97688;-42
2021/09/02 13:58:37;;;;;;;11.30;7.40;;;;;;;18.27;60.30;99376.52;456685;1196;97853;-44
2021/09/02 14:08:41;;;;;;;12.20;8.10;;;;;;;18.27;60.79;99375.56;456844;1203;108791;-42
2021/09/02 14:18:46;;;;;;;9.30;7.70;;;;;;;18.41;61.37;99378.60;456299;1203;97672;-44
2021/09/02 14:28:50;;;;;;;15.00;7.40;;;;;;;18.48;62.15;99380.04;456847;1202;108503;-42
2021/09/02 14:38:53;;;;;;;13.50;9.40;;;;;;;18.40;62.40;99379.56;456789;1197;97243;-43
2021/09/02 14:49:01;;;;;;;11.30;8.30;;;;;;;18.16;62.80;99379.09;456768;1202;109259;-42
2021/09/02 14:59:04;;;;;;;13.50;8.00;;;;;;;18.02;62.99;99367.85;456945;1202;108530;-43
2021/09/02 15:09:10;;;;;;;13.00;9.60;;;;;;;18.06;63.62;99365.98;457005;1196;97673;-42
2021/09/02 15:19:14;;;;;;;10.40;7.20;;;;;;;18.17;63.78;99354.95;456838;1203;97675;-41
2021/09/02 15:29:17;;;;;;;8.60;6.60;;;;;;;18.18;64.13;99348.25;457106;1202;96448;-44
2021/09/02 15:39:20;;;;;;;10.40;7.10;;;;;;;18.21;64.35;99350.24;456855;1202;108510;-43
2021/09/02 15:49:25;;;;;;;12.90;7.60;;;;;;;18.17;64.71;99344.99;457049;1202;97659;-43
2021/09/02 15:59:29;;;;;;;12.60;8.00;;;;;;;18.03;64.89;99337.34;457022;1196;98456;-42
2021/09/02 16:09:35;;;;;;;10.30;8.10;;;;;;;17.75;64.96;99337.20;457013;1203;108524;-43
2021/09/02 16:19:38;;;;;;;11.30;8.10;;;;;;;17.37;65.25;99331.84;456895;1197;97813;-43
2021/09/02 16:29:43;;;;;;;14.10;6.90;;;;;;;17.18;65.33;99335.91;456881;1203;97228;-42
2021/09/02 16:39:46;;;;;;;13.40;7.60;;;;;;;17.12;65.74;99326.73;456372;1203;108527;-42
2021/09/02 16:49:49;;;;;;;11.70;8.50;;;;;;;17.06;66.03;99322.04;456532;1197;97230;-43
2021/09/02 16:59:53;;;;;;;13.30;10.40;;;;;;;16.91;66.28;99309.45;456373;1203;97381;-43
2021/09/02 17:09:57;;;;;;;15.90;11.80;;;;;;;16.60;66.59;99301.20;456353;1197;108497;-43
2021/09/02 17:20:01;;;;;;;26.00;14.80;;;;;;;16.31;67.03;99298.42;456470;1203;97291;-42
2021/09/02 17:30:07;;;;;;;17.90;9.90;;;;;;;16.05;67.19;99303.52;456799;1203;108443;-41
2021/09/02 17:40:13;;;;;;;21.90;12.70;;;;;;;15.85;67.71;99303.60;456886;1203;98193;-43
2021/09/02 17:50:17;;;;;;;22.50;12.00;;;;;;;15.56;68.19;99311.29;456808;1203;97882;-42
2021/09/02 18:00:21;;;;;;;21.00;9.90;;;;;;;15.38;68.59;99325.67;456837;1203;97720;-42
2021/09/02 18:10:29;;;;;;;13.90;8.90;;;;;;;15.21;68.82;99325.53;457045;1203;108403;-43
2021/09/02 18:20:33;;;;;;;19.80;12.40;;;;;;;15.07;69.16;99334.60;456790;1196;97975;-43
2021/09/02 18:30:37;;;;;;;22.20;13.10;;;;;;;14.96;69.66;99342.90;456974;1198;108491;-42
2021/09/02 18:40:43;;;;;;;19.80;13.50;;;;;;;14.75;69.93;99346.85;456954;1203;97718;-41
2021/09/02 18:51:12;;;;;;;29.80;16.20;;;;;;;14.58;69.97;99342.97;457043;1197;97556;-42
2021/09/02 19:01:17;;;;;;;29.90;17.20;;;;;;;14.51;70.29;99341.41;456792;1203;108942;-42
2021/09/02 19:11:24;;;;;;;34.80;24.00;;;;;;;14.44;70.37;99334.52;456910;1195;97767;-41
2021/09/02 19:21:30;;;;;;;22.00;14.50;;;;;;;14.25;70.50;99327.39;456898;1195;110914;-42
2021/09/02 19:31:34;;;;;;;21.60;14.90;;;;;;;13.88;70.70;99317.04;457034;1203;108430;-43
2021/09/02 19:51:42;;;;;;;21.60;13.60;;;;;;;13.49;71.50;99319.69;456946;1203;110524;-42
2021/09/02 20:12:08;;;;;;;22.40;14.10;;;;;;;13.37;72.31;99326.80;457058;1195;97662;-42
2021/09/02 20:22:13;;;;;;;19.90;14.30;;;;;;;13.26;72.57;99330.13;457099;1197;97288;-42
2021/09/02 20:32:16;;;;;;;26.50;13.70;;;;;;;13.21;72.73;99325.15;456904;1195;108617;-42
2021/09/02 20:42:25;;;;;;;25.30;14.90;;;;;;;13.10;72.75;99320.20;456797;1203;97770;-42
2021/09/02 20:52:33;;;;;;;20.90;14.10;;;;;;;13.02;73.09;99325.16;457191;1195;108547;-42
2021/09/02 21:02:39;;;;;;;30.10;15.60;;;;;;;12.93;73.46;99322.70;456845;1203;96749;-43
2021/09/02 21:12:44;;;;;;;33.70;19.80;;;;;;;12.98;73.70;99336.67;456709;1195;110739;-45
2021/09/02 21:22:47;;;;;;;30.80;17.60;;;;;;;12.72;73.74;99339.02;457128;1203;108521;-42
2021/09/02 21:42:58;;;;;;;18.10;11.20;;;;;;;12.40;74.27;99330.77;456988;1195;96678;-42
2021/09/02 21:53:05;;;;;;;17.80;11.60;;;;;;;12.34;74.58;99336.85;456818;1203;108452;-41
2021/09/02 22:03:08;;;;;;;28.20;14.90;;;;;;;12.23;74.71;99344.60;456761;1203;96750;-42
2021/09/02 22:13:11;;;;;;;22.40;14.30;;;;;;;12.15;74.94;99341.33;456870;1203;110748;-42
2021/09/02 22:23:16;;;;;;;26.00;15.10;;;;;;;12.13;75.32;99335.60;456634;1203;108520;-41
2021/09/02 22:33:24;;;;;;;28.70;16.50;;;;;;;12.14;75.38;99332.55;456925;1203;97851;-41
2021/09/02 22:43:30;;;;;;;26.30;16.80;;;;;;;11.84;75.47;99325.06;457077;1195;110658;-43
2021/09/02 22:53:35;;;;;;;23.00;15.50;;;;;;;11.67;75.62;99319.33;456861;1203;108401;-41
2021/09/02 23:03:39;;;;;;;21.30;13.30;;;;;;;11.62;75.94;99317.08;457093;1204;97660;-41
2021/09/02 23:23:55;;;;;;;22.90;13.60;;;;;;;11.63;76.24;99303.50;456971;1200;108478;-42
2021/09/02 23:33:59;;;;;;;19.00;11.80;;;;;;;11.52;76.31;99296.73;456872;1203;97978;-41
2021/09/02 23:44:05;;;;;;;21.50;13.00;;;;;;;11.46;76.52;99291.09;456858;1195;108385;-42
2021/09/02 23:54:09;;;;;;;20.70;13.60;;;;;;;11.38;76.76;99288.16;457105;1200;97808;-42
